6°C Temp
-3°C Dewpoint
53% Humidity
Temperature
21 KM/H
13 MPH
11 KTS
110°
East South
East

Wind Speed
Overcast
Conditions
Pressure 1026.12 (hPa) - 30.3 (in)
Visibility 9.0 (mi) - 14.5 (km)

Current Conditions
CYZE
Location 50(km)
Metar :CYZE 230700Z AUTO 11011KT 9SM OVC100 06/M03 A3030 RMK PRESFR SLP267
Sat 23rd April 03:00 am

Airport
  Metar Aviation API Data Provided by https://www.checkwx.com/ PHP scripts by weather34.com ©2022